Time;durP1;ratioP1;P1;durP2;ratioP2;P2;SDS_P1;SDS_P2;PMS_P1;PMS_P2;Temp;Humidity;BMP_temperature;BMP_pressure;BME280_temperature;BME280_humidity;BME280_pressure;Samples;Min_cycle;Max_cycle;Signal;HPM_P1;HPM_P2
2022/11/26 00:02:23;;;;;;;10.47;4.80;;;11.80;80.20;;;-142.21;100.00;112049.66;5072210;28;20453;-72
2022/11/26 00:04:54;;;;;;;13.73;5.23;;;11.80;80.10;;;-142.21;100.00;112049.66;5072051;28;20438;-71
2022/11/26 00:07:28;;;;;;;9.23;4.67;;;11.80;80.20;;;-142.21;100.00;112049.66;5071767;28;20514;-71
2022/11/26 00:09:58;;;;;;;12.30;5.43;;;11.70;80.50;;;-142.21;100.00;112049.66;5072019;28;20839;-71
2022/11/26 00:12:29;;;;;;;11.83;5.47;;;11.60;80.80;;;-142.21;100.00;112049.66;5067215;28;20480;-71
2022/11/26 00:14:56;;;;;;;11.83;5.83;;;11.60;81.00;;;-142.21;100.00;112049.66;5071147;28;20920;-71
2022/11/26 00:17:24;;;;;;;8.50;4.50;;;11.60;81.10;;;-142.21;100.00;112049.66;5071846;28;20928;-71
2022/11/26 00:19:52;;;;;;;8.00;4.50;;;11.70;81.00;;;-142.21;100.00;112049.66;5071759;28;20546;-71
2022/11/26 00:22:28;;;;;;;8.87;4.57;;;11.80;80.90;;;-142.21;100.00;112049.66;5071091;28;20448;-71
2022/11/26 00:24:56;;;;;;;11.33;4.27;;;11.80;80.80;;;-142.21;100.00;112049.66;5051966;28;20471;-71
2022/11/26 00:27:27;;;;;;;10.80;4.87;;;11.80;80.50;;;-142.21;100.00;112049.66;5051905;28;20476;-71
2022/11/26 00:29:55;;;;;;;13.57;5.00;;;11.80;80.50;;;-142.21;100.00;112049.66;5058652;28;20823;-71
2022/11/26 00:32:26;;;;;;;13.80;4.80;;;11.70;80.70;;;-142.21;100.00;112049.66;5071218;28;20482;-71
2022/11/26 00:34:53;;;;;;;14.43;5.17;;;11.70;80.90;;;-142.21;100.00;112049.66;5071781;28;20443;-71
2022/11/26 00:37:27;;;;;;;8.20;4.93;;;11.60;80.80;;;-142.21;100.00;112049.66;5063162;28;20439;-70
2022/11/26 00:39:56;;;;;;;8.67;4.10;;;11.60;80.90;;;-142.21;100.00;112049.66;5071521;28;20534;-70
2022/11/26 00:42:23;;;;;;;11.97;5.00;;;11.70;80.90;;;-142.21;100.00;112049.66;5071516;28;20449;-70
2022/11/26 00:44:50;;;;;;;7.73;4.13;;;11.70;81.50;;;-142.21;100.00;112049.66;5051267;28;20935;-71
2022/11/26 00:47:17;;;;;;;10.67;5.40;;;11.70;80.80;;;-142.21;100.00;112049.66;5051996;28;20777;-71
2022/11/26 00:49:44;;;;;;;8.53;3.90;;;11.80;80.60;;;-142.21;100.00;112049.66;5055838;28;20534;-71
2022/11/26 00:52:31;;;;;;;11.70;5.27;;;11.80;80.40;;;-142.21;100.00;112049.66;5071257;28;20489;-71
2022/11/26 00:54:59;;;;;;;11.53;5.33;;;11.80;80.50;;;-142.21;100.00;112049.66;5058955;28;20438;-70
2022/11/26 00:57:26;;;;;;;14.80;5.77;;;11.80;81.00;;;-142.21;100.00;112049.66;5075654;28;20788;-70
2022/11/26 00:59:53;;;;;;;10.57;5.30;;;11.80;80.30;;;-142.21;100.00;112049.66;5075452;28;20465;-71
2022/11/26 01:02:20;;;;;;;11.27;4.57;;;11.80;80.30;;;-142.21;100.00;112049.66;5074954;28;20941;-71
2022/11/26 01:04:47;;;;;;;10.60;5.00;;;11.80;80.30;;;-142.21;100.00;112049.66;5067523;28;20455;-71
2022/11/26 01:07:14;;;;;;;8.23;4.63;;;11.80;80.30;;;-142.21;100.00;112049.66;5065389;28;20443;-71
2022/11/26 01:09:46;;;;;;;9.77;4.27;;;11.80;80.60;;;-142.21;100.00;112049.66;5074486;28;20435;-71
2022/11/26 01:12:15;;;;;;;12.17;4.53;;;11.80;80.50;;;-142.21;100.00;112049.66;5075317;28;20467;-71
2022/11/26 01:14:42;;;;;;;6.60;4.43;;;11.80;80.40;;;-142.21;100.00;112049.66;5074996;28;20454;-71
2022/11/26 01:17:12;;;;;;;6.60;4.50;;;11.80;80.50;;;-142.21;100.00;112049.66;5075029;28;20479;-71
2022/11/26 01:19:39;;;;;;;12.23;4.70;;;11.80;80.40;;;-142.21;100.00;112049.66;5059904;28;20559;-71
2022/11/26 01:22:06;;;;;;;11.60;5.03;;;11.80;80.30;;;-142.21;100.00;112049.66;5074957;28;20799;-71
2022/11/26 01:24:33;;;;;;;8.37;4.50;;;11.90;80.40;;;-142.21;100.00;112049.66;5073681;28;20471;-71
2022/11/26 01:27:01;;;;;;;10.40;4.90;;;11.80;80.10;;;-142.21;100.00;112049.66;5074944;28;20443;-72
2022/11/26 01:29:29;;;;;;;13.30;4.67;;;11.80;80.20;;;-142.21;100.00;112049.66;5074135;28;20447;-72
2022/11/26 01:31:56;;;;;;;10.17;5.23;;;11.70;80.20;;;-142.21;100.00;112049.66;5065247;28;20991;-72
2022/11/26 01:34:23;;;;;;;10.03;5.40;;;11.70;80.40;;;-142.21;100.00;112049.66;5058936;28;20450;-71
2022/11/26 01:36:50;;;;;;;14.17;7.23;;;11.70;80.30;;;-142.21;100.00;112049.66;5073641;28;20451;-71
2022/11/26 01:39:21;;;;;;;13.90;5.70;;;11.60;80.70;;;-142.21;100.00;112049.66;5074460;28;20955;-72
2022/11/26 01:41:58;;;;;;;9.97;6.00;;;11.50;81.10;;;-142.21;100.00;112049.66;5074071;28;20982;-71
2022/11/26 01:44:30;;;;;;;7.40;4.97;;;11.40;81.30;;;-142.21;100.00;112049.66;5074509;28;20474;-72
2022/11/26 01:46:59;;;;;;;11.73;5.10;;;11.50;81.50;;;-142.21;100.00;112049.66;5074348;28;20990;-71
2022/11/26 01:49:30;;;;;;;13.73;4.97;;;11.50;81.30;;;-142.21;100.00;112049.66;5074421;28;20534;-71
2022/11/26 01:52:05;;;;;;;8.90;5.23;;;11.50;81.30;;;-142.21;100.00;112049.66;5054276;28;20551;-71
2022/11/26 01:54:36;;;;;;;9.67;4.70;;;11.50;81.20;;;-142.21;100.00;112049.66;5053675;28;20531;-71
2022/11/26 01:57:10;;;;;;;12.57;5.60;;;11.50;81.50;;;-142.21;100.00;112049.66;5054615;28;20449;-71
2022/11/26 01:59:44;;;;;;;11.83;5.03;;;11.50;81.40;;;-142.21;100.00;112049.66;5060017;28;20435;-71
2022/11/26 02:02:11;;;;;;;9.80;5.00;;;11.50;81.40;;;-142.21;100.00;112049.66;5073158;28;20486;-72
2022/11/26 02:04:45;;;;;;;10.20;5.23;;;11.50;81.30;;;-142.21;100.00;112049.66;5070487;28;20539;-71
2022/11/26 02:07:13;;;;;;;15.63;5.07;;;11.50;81.50;;;-142.21;100.00;112049.66;5074047;28;20435;-71
2022/11/26 02:09:40;;;;;;;8.03;4.77;;;11.50;81.50;;;-142.21;100.00;112049.66;5073134;28;21070;-71
2022/11/26 02:12:08;;;;;;;12.57;5.17;;;11.40;81.50;;;-142.21;100.00;112049.66;5068467;28;20567;-71
2022/11/26 02:14:41;;;;;;;15.40;5.27;;;11.40;81.60;;;-142.21;100.00;112049.66;5071870;28;20542;-71
2022/11/26 02:17:22;;;;;;;10.53;5.00;;;11.40;82.10;;;-142.21;100.00;112049.66;5073084;28;20460;-71
2022/11/26 02:20:33;;;;;;;12.50;5.20;;;11.30;82.00;;;-142.21;100.00;112049.66;5072754;28;21063;-71
2022/11/26 02:23:44;;;;;;;8.40;4.50;;;11.30;82.20;;;-142.21;100.00;112049.66;5073279;28;20440;-71
2022/11/26 02:26:44;;;;;;;6.83;4.83;;;11.40;82.30;;;-142.21;100.00;112049.66;5054573;28;20448;-72
2022/11/26 02:29:23;;;;;;;9.50;5.37;;;11.40;82.10;;;-142.21;100.00;112049.66;5048210;28;20443;-71
2022/11/26 02:32:03;;;;;;;12.53;4.80;;;11.40;81.90;;;-142.21;100.00;112049.66;5072503;28;20569;-71
2022/11/26 02:34:44;;;;;;;9.67;4.67;;;11.50;81.90;;;-142.21;100.00;112049.66;5072336;28;20565;-71
2022/11/26 02:37:19;;;;;;;9.03;4.67;;;11.60;81.60;;;-142.21;100.00;112049.66;5061022;28;20850;-71
2022/11/26 02:39:47;;;;;;;11.93;5.00;;;11.60;81.30;;;-142.21;100.00;112049.66;5053159;28;20428;-72
2022/11/26 02:42:25;;;;;;;9.00;4.87;;;11.60;81.00;;;-142.21;100.00;112049.66;5055027;28;20575;-71
2022/11/26 02:44:57;;;;;;;8.67;5.10;;;11.70;81.20;;;-142.21;100.00;112049.66;5072657;28;20999;-71
2022/11/26 02:47:29;;;;;;;8.70;4.53;;;11.70;80.90;;;-142.21;100.00;112049.66;5073330;28;20480;-71
2022/11/26 02:50:06;;;;;;;14.87;5.27;;;11.70;80.90;;;-142.21;100.00;112049.66;5054868;28;20494;-71
2022/11/26 02:52:41;;;;;;;8.10;4.43;;;11.70;80.60;;;-142.21;100.00;112049.66;5064296;28;20494;-71
2022/11/26 02:55:12;;;;;;;10.57;4.90;;;11.70;80.60;;;-142.21;100.00;112049.66;5073105;28;20439;-71
2022/11/26 02:57:47;;;;;;;10.17;5.30;;;11.80;80.70;;;-142.21;100.00;112049.66;5037762;28;20536;-71
2022/11/26 03:00:16;;;;;;;12.27;5.87;;;11.80;80.30;;;-142.21;100.00;112049.66;5072448;28;20543;-71
2022/11/26 03:02:51;;;;;;;11.60;4.73;;;11.80;80.30;;;-142.21;100.00;112049.66;5072114;28;20498;-71
2022/11/26 03:05:23;;;;;;;10.97;5.13;;;11.80;80.30;;;-142.21;100.00;112049.66;5073007;28;20983;-72
2022/11/26 03:07:54;;;;;;;7.47;4.43;;;11.80;80.20;;;-142.21;100.00;112049.66;5072212;28;20427;-71
2022/11/26 03:10:26;;;;;;;7.63;4.80;;;11.80;80.20;;;-142.21;100.00;112049.66;5056039;28;20513;-71
2022/11/26 03:12:54;;;;;;;10.67;4.33;;;11.80;80.20;;;-142.21;100.00;112049.66;5058750;28;20836;-71
2022/11/26 03:15:21;;;;;;;11.03;4.47;;;11.80;80.10;;;-142.21;100.00;112049.66;5072701;28;20447;-71
2022/11/26 03:17:50;;;;;;;12.90;4.90;;;11.80;80.30;;;-142.21;100.00;112049.66;5071626;28;20443;-71
2022/11/26 03:20:18;;;;;;;9.63;4.30;;;11.80;80.20;;;-142.21;100.00;112049.66;5072765;28;20474;-71
2022/11/26 03:22:45;;;;;;;8.40;4.70;;;11.80;80.10;;;-142.21;100.00;112049.66;5067550;28;20889;-71
2022/11/26 03:25:13;;;;;;;8.43;4.70;;;11.80;80.80;;;-142.21;100.00;112049.66;5068310;28;20511;-71
2022/11/26 03:27:40;;;;;;;9.87;4.73;;;11.80;80.00;;;-142.21;100.00;112049.66;5071753;28;20446;-71
2022/11/26 03:30:09;;;;;;;10.17;5.20;;;11.80;80.00;;;-142.21;100.00;112049.66;5072213;28;20461;-71
2022/11/26 03:32:36;;;;;;;9.33;4.63;;;11.80;80.20;;;-142.21;100.00;112049.66;5069280;28;20483;-71
2022/11/26 03:35:06;;;;;;;8.43;4.07;;;11.80;80.00;;;-142.21;100.00;112049.66;5071188;28;20495;-71
2022/11/26 03:37:33;;;;;;;13.10;4.70;;;11.80;80.10;;;-142.21;100.00;112049.66;5060265;28;20452;-71
2022/11/26 03:40:00;;;;;;;11.50;5.00;;;11.80;80.10;;;-142.21;100.00;112049.66;5065131;28;20451;-71
2022/11/26 03:42:28;;;;;;;12.03;4.53;;;11.80;80.10;;;-142.21;100.00;112049.66;5071655;28;20439;-71
2022/11/26 03:44:55;;;;;;;9.80;4.70;;;11.80;80.10;;;-142.21;100.00;112049.66;5071541;28;21336;-71
2022/11/26 03:47:22;;;;;;;10.60;4.90;;;11.80;80.20;;;-142.21;100.00;112049.66;5072069;28;20954;-71
2022/11/26 03:49:50;;;;;;;10.70;4.80;;;11.70;80.00;;;-142.21;100.00;112049.66;5071007;28;20443;-71
2022/11/26 03:52:18;;;;;;;13.50;5.00;;;11.70;80.20;;;-142.21;100.00;112049.66;5072371;28;20501;-71
2022/11/26 03:54:45;;;;;;;13.37;5.17;;;11.70;80.20;;;-142.21;100.00;112049.66;5051874;28;20630;-71
2022/11/26 03:57:12;;;;;;;12.73;4.90;;;11.70;80.20;;;-142.21;100.00;112049.66;5052202;28;20451;-71
2022/11/26 03:59:39;;;;;;;9.87;5.13;;;11.70;80.20;;;-142.21;100.00;112049.66;5051687;28;20452;-70
2022/11/26 04:02:06;;;;;;;8.17;4.47;;;11.70;80.20;;;-142.21;100.00;112049.66;5051824;28;20534;-71
2022/11/26 04:04:34;;;;;;;14.13;4.80;;;11.70;80.10;;;-142.21;100.00;112049.66;5071149;28;20442;-71
2022/11/26 04:07:01;;;;;;;9.63;4.60;;;11.60;80.70;;;-142.21;100.00;112049.66;5071880;28;20453;-71
2022/11/26 04:09:29;;;;;;;12.57;4.87;;;11.70;80.10;;;-142.21;100.00;112049.66;5058520;28;20459;-71
2022/11/26 04:11:56;;;;;;;10.83;4.93;;;11.70;80.00;;;-142.21;100.00;112049.66;5063957;28;20983;-72
2022/11/26 04:14:24;;;;;;;10.07;4.97;;;11.60;79.80;;;-142.21;100.00;112049.66;5068645;28;20470;-71
2022/11/26 04:16:51;;;;;;;11.53;4.93;;;11.60;79.80;;;-142.21;100.00;112049.66;5070576;28;21062;-71
2022/11/26 04:19:18;;;;;;;8.20;4.90;;;11.60;79.90;;;-142.21;100.00;112049.66;5056137;28;20827;-71
2022/11/26 04:21:45;;;;;;;10.00;4.70;;;11.60;79.80;;;-142.21;100.00;112049.66;5071173;28;20449;-71
2022/11/26 04:24:13;;;;;;;9.97;4.87;;;11.60;79.70;;;-142.21;100.00;112049.66;5068583;28;20551;-72
2022/11/26 04:26:41;;;;;;;8.33;4.47;;;11.60;79.80;;;-142.21;100.00;112049.66;5070609;28;20678;-71
2022/11/26 04:29:08;;;;;;;9.47;4.87;;;11.60;79.80;;;-142.21;100.00;112049.66;5070996;28;20457;-72
2022/11/26 04:31:36;;;;;;;11.50;5.10;;;11.50;79.80;;;-142.21;100.00;112049.66;5060759;28;20479;-71
2022/11/26 04:34:03;;;;;;;11.93;4.97;;;11.50;80.10;;;-142.21;100.00;112049.66;5074519;28;20450;-71
2022/11/26 04:36:33;;;;;;;8.73;4.47;;;11.50;80.10;;;-142.21;100.00;112049.66;5073006;28;20545;-71
2022/11/26 04:39:00;;;;;;;7.77;4.90;;;11.50;80.00;;;-142.21;100.00;112049.66;5055297;28;20480;-71
2022/11/26 04:41:27;;;;;;;13.43;5.27;;;11.60;79.90;;;-142.21;100.00;112049.66;5055681;28;20448;-70
2022/11/26 04:43:56;;;;;;;10.13;5.20;;;11.60;79.80;;;-142.21;100.00;112049.66;5067142;28;20450;-71
2022/11/26 04:46:23;;;;;;;10.40;4.77;;;11.60;79.80;;;-142.21;100.00;112049.66;5075673;28;20500;-71
2022/11/26 04:48:50;;;;;;;13.30;5.00;;;11.70;79.80;;;-142.21;100.00;112049.66;5074766;28;20534;-72
2022/11/26 04:51:17;;;;;;;10.37;4.83;;;11.60;79.80;;;-142.21;100.00;112049.66;5075536;28;20538;-71
2022/11/26 04:53:45;;;;;;;9.17;4.67;;;11.70;79.80;;;-142.21;100.00;112049.66;5074807;28;20479;-71
2022/11/26 04:56:12;;;;;;;12.17;4.90;;;11.60;79.60;;;-142.21;100.00;112049.66;5075348;28;20455;-71
2022/11/26 04:58:39;;;;;;;10.90;4.70;;;11.60;79.60;;;-142.21;100.00;112049.66;5074368;28;20443;-71
2022/11/26 05:01:08;;;;;;;12.33;4.73;;;11.60;79.80;;;-142.21;100.00;112049.66;5069114;28;20531;-71
2022/11/26 05:03:36;;;;;;;9.30;4.87;;;11.60;80.00;;;-142.21;100.00;112049.66;5072480;28;20532;-71
2022/11/26 05:06:03;;;;;;;10.03;4.90;;;11.60;80.00;;;-142.21;100.00;112049.66;5057257;28;20447;-71
2022/11/26 05:08:30;;;;;;;9.40;4.67;;;11.60;80.00;;;-142.21;100.00;112049.66;5068272;28;20453;-71
2022/11/26 05:11:00;;;;;;;13.10;5.50;;;11.50;79.90;;;-142.21;100.00;112049.66;5074322;28;20447;-71
2022/11/26 05:13:27;;;;;;;11.27;5.83;;;11.50;80.00;;;-142.21;100.00;112049.66;5074664;28;20574;-71
2022/11/26 05:15:54;;;;;;;12.97;5.70;;;11.50;80.10;;;-142.21;100.00;112049.66;5071447;28;20815;-71
2022/11/26 05:18:22;;;;;;;17.10;6.87;;;11.50;80.20;;;-142.21;100.00;112049.66;5073662;28;20562;-72
2022/11/26 05:20:49;;;;;;;11.50;4.97;;;11.60;80.30;;;-142.21;100.00;112049.66;5074337;28;20439;-71
2022/11/26 05:23:17;;;;;;;10.03;4.57;;;11.40;80.30;;;-142.21;100.00;112049.66;5074932;28;20439;-71
2022/11/26 05:25:43;;;;;;;10.73;4.70;;;11.40;80.60;;;-142.21;100.00;112049.66;5072804;28;20569;-72
2022/11/26 05:28:11;;;;;;;9.23;4.70;;;11.40;80.60;;;-142.21;100.00;112049.66;5066549;28;20444;-71
2022/11/26 05:30:38;;;;;;;7.43;4.53;;;11.50;80.50;;;-142.21;100.00;112049.66;5064994;28;20497;-71
2022/11/26 05:33:05;;;;;;;11.93;5.27;;;11.50;80.50;;;-142.21;100.00;112049.66;5072678;28;20494;-71
2022/11/26 05:35:33;;;;;;;9.60;4.53;;;11.50;80.30;;;-142.21;100.00;112049.66;5073336;28;20457;-71
2022/11/26 05:38:00;;;;;;;12.23;5.03;;;11.50;80.20;;;-142.21;100.00;112049.66;5073035;28;20558;-71
2022/11/26 05:40:27;;;;;;;11.10;5.13;;;11.50;80.20;;;-142.21;100.00;112049.66;5064138;28;20452;-71
2022/11/26 05:42:55;;;;;;;11.50;5.13;;;11.60;80.10;;;-142.21;100.00;112049.66;5059083;28;20487;-71
2022/11/26 05:45:22;;;;;;;9.93;4.77;;;11.50;80.00;;;-142.21;100.00;112049.66;5073450;28;20443;-71
2022/11/26 05:47:49;;;;;;;11.30;5.00;;;11.50;80.00;;;-142.21;100.00;112049.66;5072365;28;20443;-71
2022/11/26 05:50:16;;;;;;;9.40;4.77;;;11.50;80.00;;;-142.21;100.00;112049.66;5073416;28;20449;-71
2022/11/26 05:52:45;;;;;;;12.37;5.47;;;11.50;80.80;;;-142.21;100.00;112049.66;5064387;28;20476;-71
2022/11/26 05:55:12;;;;;;;10.40;4.93;;;11.50;79.80;;;-142.21;100.00;112049.66;5073146;28;20443;-71
2022/11/26 05:57:39;;;;;;;14.63;5.57;;;11.60;80.00;;;-142.21;100.00;112049.66;5072950;28;20514;-71
2022/11/26 06:00:09;;;;;;;11.10;5.63;;;11.60;79.80;;;-142.21;100.00;112049.66;5072707;28;20991;-71
2022/11/26 06:02:36;;;;;;;15.33;6.63;;;11.50;79.80;;;-142.21;100.00;112049.66;5072997;28;20447;-71
2022/11/26 06:05:08;;;;;;;11.97;5.70;;;11.60;79.80;;;-142.21;100.00;112049.66;5066309;28;20790;-71
2022/11/26 06:07:35;;;;;;;8.97;5.53;;;11.60;80.00;;;-142.21;100.00;112049.66;5072702;28;20438;-71
2022/11/26 06:10:06;;;;;;;16.63;8.83;;;11.50;80.00;;;-142.21;100.00;112049.66;5072655;28;20461;-72
2022/11/26 06:12:34;;;;;;;13.07;6.57;;;11.40;80.10;;;-142.21;100.00;112049.66;5072578;28;20881;-72
2022/11/26 06:15:01;;;;;;;14.43;7.23;;;11.30;80.30;;;-142.21;100.00;112049.66;5072130;28;20447;-72
2022/11/26 06:17:29;;;;;;;11.17;6.93;;;11.20;80.80;;;-142.21;100.00;112049.66;5071999;28;20451;-72
2022/11/26 06:19:56;;;;;;;14.10;6.07;;;11.20;81.10;;;-142.21;100.00;112049.66;5072331;28;20463;-72
2022/11/26 06:22:27;;;;;;;13.53;6.07;;;11.10;81.20;;;-142.21;100.00;112049.66;5072619;28;20530;-72
2022/11/26 06:24:55;;;;;;;16.67;6.90;;;11.10;81.30;;;-142.21;100.00;112049.66;5029693;28;1211924;-72
2022/11/26 06:27:24;;;;;;;15.50;6.13;;;11.10;81.50;;;-142.21;100.00;112049.66;5073544;28;20208;-72
2022/11/26 06:29:51;;;;;;;9.17;6.00;;;11.00;81.60;;;-142.21;100.00;112049.66;5073211;28;20501;-72
2022/11/26 06:32:19;;;;;;;17.87;7.43;;;10.90;81.90;;;-142.21;100.00;112049.66;5073043;28;20490;-73
2022/11/26 06:34:46;;;;;;;14.30;7.37;;;10.80;82.30;;;-142.21;100.00;112049.66;5069079;28;20447;-72
2022/11/26 06:37:13;;;;;;;15.83;9.03;;;10.80;82.80;;;-142.21;100.00;112049.66;5073218;28;20525;-72
2022/11/26 06:39:41;;;;;;;19.03;8.77;;;10.70;83.00;;;-142.21;100.00;112049.66;5073380;28;20530;-73
2022/11/26 06:42:08;;;;;;;13.80;6.43;;;10.70;83.60;;;-142.21;100.00;112049.66;5060727;28;20479;-72
2022/11/26 06:44:37;;;;;;;13.27;7.90;;;10.60;83.90;;;-142.21;100.00;112049.66;5068140;28;20534;-73
2022/11/26 06:47:05;;;;;;;16.53;7.97;;;10.70;84.00;;;-142.21;100.00;112049.66;5072923;28;20501;-72
2022/11/26 06:49:32;;;;;;;13.17;7.60;;;10.70;84.00;;;-142.21;100.00;112049.66;5073056;28;20517;-72
2022/11/26 06:51:59;;;;;;;14.40;7.30;;;10.70;83.90;;;-142.21;100.00;112049.66;5071530;28;20492;-73
2022/11/26 06:54:26;;;;;;;13.30;6.70;;;10.80;84.00;;;-142.21;100.00;112049.66;5072254;28;20483;-73
2022/11/26 06:56:54;;;;;;;12.23;6.83;;;10.80;83.80;;;-142.21;100.00;112049.66;5055752;28;20548;-72
2022/11/26 06:59:21;;;;;;;16.47;6.50;;;10.90;83.80;;;-142.21;100.00;112049.66;5070655;28;20459;-72
2022/11/26 07:01:50;;;;;;;15.43;6.30;;;10.90;83.40;;;-142.21;100.00;112049.66;5071969;28;20478;-72
2022/11/26 07:04:17;;;;;;;9.80;6.07;;;10.90;83.40;;;-142.21;100.00;112049.66;5072373;28;20507;-73
2022/11/26 07:06:46;;;;;;;15.50;6.60;;;10.90;83.30;;;-142.21;100.00;112049.66;5072546;28;20447;-73
2022/11/26 07:09:13;;;;;;;11.80;6.20;;;10.90;83.30;;;-142.21;100.00;112049.66;5071472;28;20970;-73
2022/11/26 07:11:42;;;;;;;12.13;5.80;;;11.00;83.40;;;-142.21;100.00;112049.66;5072719;28;20506;-73
2022/11/26 07:14:10;;;;;;;14.87;7.27;;;11.00;83.30;;;-142.21;100.00;112049.66;5072020;28;20848;-72
2022/11/26 07:16:37;;;;;;;11.87;6.77;;;11.00;83.20;;;-142.21;100.00;112049.66;5072147;28;20440;-72
2022/11/26 07:19:06;;;;;;;11.60;6.40;;;11.00;83.20;;;-142.21;100.00;112049.66;5071772;28;20529;-73
2022/11/26 07:21:33;;;;;;;14.57;6.37;;;11.00;82.90;;;-142.21;100.00;112049.66;5071719;28;20451;-72
2022/11/26 07:24:00;;;;;;;14.80;6.97;;;11.00;82.70;;;-142.21;100.00;112049.66;5071189;28;20447;-73
2022/11/26 07:26:28;;;;;;;16.27;7.10;;;11.10;82.80;;;-142.21;100.00;112049.66;5072402;28;20443;-72
2022/11/26 07:28:55;;;;;;;11.77;6.60;;;11.00;82.40;;;-142.21;100.00;112049.66;5071422;28;20928;-72
2022/11/26 07:31:24;;;;;;;16.47;7.53;;;11.10;82.50;;;-142.21;100.00;112049.66;5071422;28;20447;-72
2022/11/26 07:33:51;;;;;;;16.60;7.20;;;11.10;82.30;;;-142.21;100.00;112049.66;5070849;28;21060;-73
2022/11/26 07:36:23;;;;;;;14.83;7.30;;;11.10;82.90;;;-142.21;100.00;112049.66;5071834;28;20501;-72
2022/11/26 07:38:53;;;;;;;14.83;6.80;;;11.10;82.20;;;-142.21;100.00;112049.66;5071541;28;20955;-72
2022/11/26 07:41:21;;;;;;;16.30;8.13;;;11.10;81.90;;;-142.21;100.00;112049.66;5072631;28;20519;-73
2022/11/26 07:43:49;;;;;;;18.33;8.47;;;11.10;81.70;;;-142.21;100.00;112049.66;5067234;28;20925;-72
2022/11/26 07:46:22;;;;;;;17.23;8.73;;;11.00;81.80;;;-142.21;100.00;112049.66;5052451;28;20501;-73
2022/11/26 07:48:50;;;;;;;18.80;8.77;;;11.00;82.00;;;-142.21;100.00;112049.66;5051583;28;20439;-72
2022/11/26 07:51:22;;;;;;;15.50;8.33;;;10.90;82.10;;;-142.21;100.00;112049.66;5052229;28;20452;-72
2022/11/26 07:53:51;;;;;;;17.30;8.67;;;10.80;82.10;;;-142.21;100.00;112049.66;5057753;28;20558;-72
2022/11/26 07:56:19;;;;;;;17.97;8.27;;;10.80;82.20;;;-142.21;100.00;112049.66;5064109;28;20484;-71
2022/11/26 07:58:46;;;;;;;15.30;7.83;;;10.80;82.60;;;-142.21;100.00;112049.66;5052146;28;20452;-73
2022/11/26 08:01:17;;;;;;;13.07;7.50;;;10.70;82.80;;;-142.21;100.00;112049.66;5051912;28;21505;-73
2022/11/26 08:03:48;;;;;;;14.27;8.60;;;10.80;83.20;;;-142.21;100.00;112049.66;5056835;28;20436;-72
2022/11/26 08:06:23;;;;;;;16.63;7.70;;;10.80;83.00;;;-142.21;100.00;112049.66;5062262;28;20435;-71
2022/11/26 08:08:51;;;;;;;14.97;8.27;;;10.80;82.80;;;-142.21;100.00;112049.66;5059105;28;20517;-73
2022/11/26 08:11:23;;;;;;;18.70;8.93;;;10.80;82.70;;;-142.21;100.00;112049.66;5061124;28;20451;-72
2022/11/26 08:13:54;;;;;;;13.33;9.17;;;10.80;82.80;;;-142.21;100.00;112049.66;5070706;28;20474;-72
2022/11/26 08:16:22;;;;;;;18.20;9.43;;;10.80;82.80;;;-142.21;100.00;112049.66;5071759;28;20443;-72
2022/11/26 08:18:54;;;;;;;15.43;8.20;;;11.00;82.60;;;-142.21;100.00;112049.66;5070205;28;21096;-72
2022/11/26 08:21:22;;;;;;;19.60;8.17;;;11.00;82.30;;;-142.21;100.00;112049.66;5071020;28;20439;-72
2022/11/26 08:23:51;;;;;;;15.07;8.57;;;11.00;82.00;;;-142.21;100.00;112049.66;5070252;28;20440;-72
2022/11/26 08:26:18;;;;;;;14.73;9.30;;;10.90;82.20;;;-142.21;100.00;112049.66;5071256;28;20439;-72
2022/11/26 08:28:47;;;;;;;15.77;8.30;;;10.90;82.50;;;-142.21;100.00;112049.66;5070705;28;20443;-72
2022/11/26 08:31:17;;;;;;;16.70;9.47;;;10.90;82.50;;;-142.21;100.00;112049.66;5071540;28;20448;-71
2022/11/26 08:33:45;;;;;;;18.03;8.30;;;11.00;82.50;;;-142.21;100.00;112049.66;5070800;28;20479;-73
2022/11/26 08:36:13;;;;;;;12.43;7.93;;;11.00;82.50;;;-142.21;100.00;112049.66;5070530;28;20534;-73
2022/11/26 08:38:42;;;;;;;17.67;8.73;;;11.10;82.30;;;-142.21;100.00;112049.66;5071512;28;20479;-72
2022/11/26 08:41:12;;;;;;;16.83;7.63;;;11.10;82.70;;;-142.21;100.00;112049.66;5071362;28;20869;-73
2022/11/26 08:43:40;;;;;;;15.03;8.40;;;11.20;82.10;;;-142.21;100.00;112049.66;5070737;28;20431;-74
2022/11/26 08:46:07;;;;;;;15.90;9.27;;;11.20;81.80;;;-142.21;100.00;112049.66;5068767;28;20442;-74
2022/11/26 08:48:35;;;;;;;16.30;8.43;;;11.10;81.40;;;-142.21;100.00;112049.66;5071437;28;20447;-74
2022/11/26 08:51:05;;;;;;;19.73;8.80;;;11.10;81.90;;;-142.21;100.00;112049.66;5070788;28;20450;-74
2022/11/26 08:53:34;;;;;;;15.90;8.23;;;11.00;81.60;;;-142.21;100.00;112049.66;5070208;28;20482;-74
2022/11/26 08:56:04;;;;;;;16.80;9.67;;;11.00;81.70;;;-142.21;100.00;112049.66;5065990;28;20536;-75
2022/11/26 08:58:34;;;;;;;14.57;8.83;;;11.00;81.90;;;-142.21;100.00;112049.66;5060054;28;20432;-74
2022/11/26 09:01:09;;;;;;;14.83;8.20;;;10.90;81.60;;;-142.21;100.00;112049.66;5054811;28;20451;-75
2022/11/26 09:03:36;;;;;;;13.10;7.50;;;10.90;82.30;;;-142.21;100.00;112049.66;5070877;28;20435;-75
2022/11/26 09:06:06;;;;;;;17.77;7.20;;;11.00;82.00;;;-142.21;100.00;112049.66;5070500;28;20448;-74
2022/11/26 09:08:43;;;;;;;17.00;8.77;;;11.00;81.80;;;-142.21;100.00;112049.66;5062613;28;20543;-74
2022/11/26 09:11:12;;;;;;;17.87;7.77;;;11.10;81.80;;;-142.21;100.00;112049.66;5034172;28;20452;-74
2022/11/26 09:13:39;;;;;;;15.20;8.37;;;11.10;81.60;;;-142.21;100.00;112049.66;5063676;28;20999;-74
2022/11/26 09:16:07;;;;;;;15.37;8.87;;;11.10;81.70;;;-142.21;100.00;112049.66;5072330;28;20534;-74
2022/11/26 09:18:34;;;;;;;15.80;8.40;;;11.10;81.40;;;-142.21;100.00;112049.66;5072483;28;21218;-75
2022/11/26 09:21:03;;;;;;;14.13;7.97;;;11.10;81.30;;;-142.21;100.00;112049.66;5064822;28;20602;-74
2022/11/26 09:23:31;;;;;;;13.53;7.90;;;11.10;81.50;;;-142.21;100.00;112049.66;5056128;28;20436;-74
2022/11/26 09:25:58;;;;;;;14.43;7.60;;;11.00;81.00;;;-142.21;100.00;112049.66;5073837;28;20574;-75
2022/11/26 09:28:28;;;;;;;12.23;7.23;;;10.90;81.70;;;-142.21;100.00;112049.66;5074897;28;20530;-74
2022/11/26 09:30:58;;;;;;;18.07;9.07;;;11.00;81.50;;;-142.21;100.00;112049.66;5066247;28;20753;-75
2022/11/26 09:33:26;;;;;;;15.73;7.87;;;10.90;81.20;;;-142.21;100.00;112049.66;5072416;28;20477;-74
2022/11/26 09:35:53;;;;;;;14.60;7.67;;;10.90;81.60;;;-142.21;100.00;112049.66;5068499;28;20447;-75
2022/11/26 09:38:24;;;;;;;10.93;7.00;;;11.00;81.90;;;-142.21;100.00;112049.66;5074646;28;20478;-75
2022/11/26 09:41:02;;;;;;;13.63;8.27;;;11.00;81.40;;;-142.21;100.00;112049.66;5074802;28;20508;-74
2022/11/26 09:43:46;;;;;;;11.67;7.93;;;11.00;81.30;;;-142.21;100.00;112049.66;5074484;28;20447;-74
2022/11/26 09:46:22;;;;;;;14.27;8.33;;;11.10;81.10;;;-142.21;100.00;112049.66;5071902;28;20482;-77
2022/11/26 09:48:50;;;;;;;15.00;7.80;;;11.10;81.10;;;-142.21;100.00;112049.66;5073196;28;20910;-77
2022/11/26 09:51:19;;;;;;;10.00;6.47;;;11.10;81.10;;;-142.21;100.00;112049.66;5074545;28;20443;-76
2022/11/26 09:53:50;;;;;;;15.03;8.67;;;11.20;81.00;;;-142.21;100.00;112049.66;5073237;28;20479;-79
2022/11/26 09:56:26;;;;;;;14.90;6.83;;;11.20;80.40;;;-142.21;100.00;112049.66;5074510;28;20442;-77
2022/11/26 09:59:00;;;;;;;14.80;7.67;;;11.10;80.60;;;-142.21;100.00;112049.66;5074982;28;20458;-76